createdAt,value
2024-01-15T00:00:02.698Z,2.20
2024-01-15T00:02:39.170Z,2.20
2024-01-15T00:05:08.103Z,2.20
2024-01-15T00:07:37.845Z,2.20
2024-01-15T00:10:07.415Z,2.30
2024-01-15T00:12:35.876Z,2.20
2024-01-15T00:15:07.235Z,2.20
2024-01-15T00:17:35.884Z,2.20
2024-01-15T00:20:05.754Z,2.20
2024-01-15T00:22:36.532Z,2.20
2024-01-15T00:25:05.501Z,2.20
2024-01-15T00:27:34.163Z,2.10
2024-01-15T00:30:02.766Z,2.10
2024-01-15T00:32:32.539Z,2.10
2024-01-15T00:35:01.531Z,2.10
2024-01-15T00:37:29.928Z,2.20
2024-01-15T00:39:58.504Z,2.10
2024-01-15T00:42:27.212Z,2.10
2024-01-15T00:44:56.409Z,2.20
2024-01-15T00:47:25.021Z,2.20
2024-01-15T00:49:55.158Z,2.20
2024-01-15T00:52:23.636Z,2.10
2024-01-15T00:54:52.170Z,2.00
2024-01-15T00:57:20.852Z,2.10
2024-01-15T00:59:50.318Z,2.20
2024-01-15T01:02:18.766Z,2.20
2024-01-15T01:04:47.344Z,2.10
2024-01-15T01:07:17.064Z,2.10
2024-01-15T01:09:46.781Z,2.00
2024-01-15T01:12:15.409Z,2.00
2024-01-15T01:14:43.854Z,1.90
2024-01-15T01:17:12.275Z,1.80
2024-01-15T01:19:40.772Z,1.70
2024-01-15T01:22:09.226Z,1.60
2024-01-15T01:24:39.127Z,1.60
2024-01-15T01:27:07.567Z,1.60
2024-01-15T01:29:36.027Z,1.60
2024-01-15T01:32:04.344Z,1.70
2024-01-15T01:34:35.245Z,1.70
2024-01-15T01:37:03.631Z,1.70
2024-01-15T01:39:32.206Z,1.70
2024-01-15T01:42:01.999Z,1.70
2024-01-15T01:44:30.449Z,1.70
2024-01-15T01:47:01.294Z,1.80
2024-01-15T01:49:30.522Z,1.70
2024-01-15T01:52:01.859Z,1.70
2024-01-15T01:54:34.465Z,1.70
2024-01-15T01:57:07.277Z,1.70
2024-01-15T01:59:37.937Z,1.70
2024-01-15T02:02:07.869Z,1.60
2024-01-15T02:04:37.947Z,1.60
2024-01-15T02:07:07.178Z,1.60
2024-01-15T02:09:35.607Z,1.60
2024-01-15T02:12:06.158Z,1.60
2024-01-15T02:14:35.030Z,1.60
2024-01-15T02:17:03.517Z,1.60
2024-01-15T02:19:31.883Z,1.50
2024-01-15T02:22:00.315Z,1.40
2024-01-15T02:24:30.073Z,1.50
2024-01-15T02:26:58.963Z,1.40
2024-01-15T02:29:27.577Z,1.50
2024-01-15T02:31:56.051Z,1.60
2024-01-15T02:34:24.688Z,1.60
2024-01-15T02:36:53.367Z,1.60
2024-01-15T02:39:21.789Z,1.60
2024-01-15T02:41:51.659Z,1.60
2024-01-15T02:44:20.152Z,1.60
2024-01-15T02:46:48.707Z,1.60
2024-01-15T02:49:17.127Z,1.60
2024-01-15T02:51:46.184Z,1.60
2024-01-15T02:54:15.076Z,1.60
2024-01-15T02:56:43.507Z,1.70
2024-01-15T02:59:13.681Z,1.70
2024-01-15T03:01:42.361Z,1.70
2024-01-15T03:04:11.034Z,1.70
2024-01-15T03:06:39.635Z,1.80
2024-01-15T03:09:08.130Z,1.70
2024-01-15T03:11:40.270Z,1.80
2024-01-15T03:14:08.767Z,1.80
2024-01-15T03:16:38.560Z,1.80
2024-01-15T03:19:09.082Z,1.80
2024-01-15T03:21:37.594Z,1.80
2024-01-15T03:24:06.812Z,1.90
2024-01-15T03:26:35.306Z,1.90
2024-01-15T03:29:03.783Z,1.90
2024-01-15T03:31:32.739Z,1.90
2024-01-15T03:34:02.669Z,1.90
2024-01-15T03:36:31.216Z,1.90
2024-01-15T03:39:02.941Z,1.90
2024-01-15T03:41:31.896Z,2.00
2024-01-15T03:44:00.445Z,1.90
2024-01-15T03:46:37.846Z,1.90
2024-01-15T03:49:07.937Z,1.90
2024-01-15T03:51:36.678Z,1.90
2024-01-15T03:54:05.497Z,1.90
2024-01-15T03:56:33.924Z,1.90
2024-01-15T03:59:02.427Z,1.90
2024-01-15T04:01:31.285Z,1.90
2024-01-15T04:04:04.423Z,1.90
2024-01-15T04:06:34.664Z,1.90
2024-01-15T04:09:03.117Z,1.90
2024-01-15T04:11:31.999Z,1.90
2024-01-15T04:14:00.377Z,1.90
2024-01-15T04:16:28.968Z,1.90
2024-01-15T04:18:57.422Z,1.90
2024-01-15T04:21:26.035Z,1.90
2024-01-15T04:23:55.859Z,1.90
2024-01-15T04:26:24.237Z,1.90
2024-01-15T04:28:52.614Z,1.90
2024-01-15T04:31:26.340Z,1.90
2024-01-15T04:33:55.493Z,2.00
2024-01-15T04:36:24.075Z,2.00
2024-01-15T04:38:52.488Z,2.00
2024-01-15T04:41:22.795Z,2.00
2024-01-15T04:43:51.341Z,2.00
2024-01-15T04:46:20.330Z,2.00
2024-01-15T04:48:49.897Z,2.00
2024-01-15T04:51:18.419Z,2.10
2024-01-15T04:53:47.266Z,2.00
2024-01-15T04:56:15.843Z,2.00
2024-01-15T04:58:45.774Z,2.10
2024-01-15T05:01:14.282Z,2.10
2024-01-15T05:03:43.032Z,2.10
2024-01-15T05:06:11.845Z,2.10
2024-01-15T05:08:40.343Z,2.10
2024-01-15T05:11:08.817Z,2.10
2024-01-15T05:13:37.594Z,2.10
2024-01-15T05:16:07.874Z,2.10
2024-01-15T05:18:38.513Z,2.10
2024-01-15T05:21:07.528Z,2.20
2024-01-15T05:23:37.332Z,2.10
2024-01-15T05:26:06.314Z,2.20
2024-01-15T05:28:34.916Z,2.20
2024-01-15T05:31:04.378Z,2.10
2024-01-15T05:33:34.283Z,2.10
2024-01-15T05:36:03.659Z,2.10
2024-01-15T05:38:32.023Z,2.00
2024-01-15T05:41:00.362Z,2.10
2024-01-15T05:43:29.307Z,2.10
2024-01-15T05:45:57.813Z,2.10
2024-01-15T05:48:26.561Z,2.20
2024-01-15T05:50:56.475Z,2.10
2024-01-15T05:53:25.161Z,2.20
2024-01-15T05:55:54.224Z,2.20
2024-01-15T05:58:22.540Z,2.30
2024-01-15T06:00:51.404Z,2.20
2024-01-15T06:04:07.962Z,2.20
2024-01-15T06:06:37.982Z,2.20
2024-01-15T06:09:07.469Z,2.10
2024-01-15T06:11:36.189Z,2.10
2024-01-15T06:14:04.651Z,2.10
2024-01-15T06:16:32.996Z,2.20
2024-01-15T06:19:01.986Z,2.20
2024-01-15T06:21:30.587Z,2.20
2024-01-15T06:24:00.400Z,2.20
2024-01-15T06:26:36.207Z,2.30
2024-01-15T06:29:04.976Z,2.30
2024-01-15T06:31:33.411Z,2.40
2024-01-15T06:34:02.048Z,2.40
2024-01-15T06:36:30.594Z,2.40
2024-01-15T06:39:00.804Z,2.40
2024-01-15T06:41:29.230Z,2.40
2024-01-15T06:43:57.920Z,2.40
2024-01-15T06:46:26.238Z,2.40
2024-01-15T06:48:54.783Z,2.40
2024-01-15T06:51:23.822Z,2.40
2024-01-15T06:53:55.211Z,2.30
2024-01-15T06:56:25.224Z,2.30
2024-01-15T06:58:53.636Z,2.30
2024-01-15T07:01:22.326Z,2.40
2024-01-15T07:03:50.920Z,2.30
2024-01-15T07:06:19.486Z,2.30
2024-01-15T07:08:48.985Z,2.40
2024-01-15T07:11:17.874Z,2.40
2024-01-15T07:13:48.005Z,2.40
2024-01-15T07:16:22.480Z,2.40
2024-01-15T07:18:58.995Z,2.40
2024-01-15T07:21:27.584Z,2.40
2024-01-15T07:23:56.089Z,2.40
2024-01-15T07:26:24.494Z,2.40
2024-01-15T07:28:54.327Z,2.40
2024-01-15T07:31:22.970Z,2.40
2024-01-15T07:33:51.585Z,2.50
2024-01-15T07:36:24.485Z,2.50
2024-01-15T07:38:52.859Z,2.50
2024-01-15T07:41:21.425Z,2.50
2024-01-15T07:43:49.811Z,2.50
2024-01-15T07:46:19.920Z,2.50
2024-01-15T07:48:48.267Z,2.60
2024-01-15T07:51:17.008Z,2.60
2024-01-15T07:53:45.371Z,2.60
2024-01-15T07:56:13.916Z,2.60
2024-01-15T07:58:42.775Z,2.60
2024-01-15T08:01:12.534Z,2.50
2024-01-15T08:03:42.698Z,2.50
2024-01-15T08:06:11.965Z,2.50
2024-01-15T08:08:40.517Z,2.50
2024-01-15T08:11:09.160Z,2.50
2024-01-15T08:13:37.547Z,2.60
2024-01-15T08:16:07.200Z,2.60
2024-01-15T08:18:35.862Z,2.60
2024-01-15T08:21:06.631Z,2.60
2024-01-15T08:23:37.466Z,2.60
2024-01-15T08:26:06.402Z,2.70
2024-01-15T08:28:36.271Z,2.70
2024-01-15T08:31:06.034Z,2.70
2024-01-15T08:33:34.780Z,2.70
2024-01-15T08:36:03.816Z,2.70
2024-01-15T08:38:33.472Z,2.70
2024-01-15T08:41:02.004Z,2.70
2024-01-15T08:43:32.135Z,2.70
2024-01-15T08:46:01.637Z,2.70
2024-01-15T08:48:30.250Z,2.80
2024-01-15T08:50:58.804Z,2.70
2024-01-15T08:53:28.364Z,2.70
2024-01-15T08:55:58.361Z,2.70
2024-01-15T08:58:27.149Z,2.70
2024-01-15T09:00:58.251Z,2.60
2024-01-15T09:03:27.050Z,2.60
2024-01-15T09:05:55.916Z,2.70
2024-01-15T09:08:24.610Z,2.70
2024-01-15T09:10:53.006Z,2.70
2024-01-15T09:13:22.790Z,2.70
2024-01-15T09:15:51.330Z,2.70
2024-01-15T09:18:19.948Z,2.70
2024-01-15T09:20:48.348Z,2.70
2024-01-15T09:23:16.967Z,2.70
2024-01-15T09:25:45.613Z,2.70
2024-01-15T09:28:14.092Z,2.80
2024-01-15T09:30:43.880Z,2.80
2024-01-15T09:33:12.461Z,2.90
2024-01-15T09:35:41.098Z,2.90
2024-01-15T09:38:09.492Z,2.90
2024-01-15T09:40:45.661Z,3.00
2024-01-15T09:43:20.650Z,3.10
2024-01-15T09:45:53.568Z,3.20
2024-01-15T09:48:22.384Z,3.30
2024-01-15T09:50:52.383Z,3.30
2024-01-15T09:53:22.698Z,3.40
2024-01-15T09:55:52.649Z,3.50
2024-01-15T09:58:21.613Z,3.50
2024-01-15T10:00:52.391Z,3.50
2024-01-15T10:03:22.543Z,3.50
2024-01-15T10:05:52.366Z,3.40
2024-01-15T10:08:22.074Z,3.50
2024-01-15T10:10:51.300Z,3.50
2024-01-15T10:13:20.885Z,3.50
2024-01-15T10:15:50.858Z,3.50
2024-01-15T10:18:19.674Z,3.50
2024-01-15T10:20:49.195Z,3.50
2024-01-15T10:23:17.859Z,3.50
2024-01-15T10:25:46.329Z,3.50
2024-01-15T10:28:16.515Z,3.60
2024-01-15T10:30:44.972Z,3.70
2024-01-15T10:35:45.784Z,3.60
2024-01-15T10:38:14.368Z,3.50
2024-01-15T10:40:43.839Z,3.40
2024-01-15T10:43:12.402Z,3.30
2024-01-15T10:45:41.500Z,3.30
2024-01-15T10:48:10.558Z,3.30
2024-01-15T10:50:40.794Z,3.20
2024-01-15T10:53:11.824Z,3.30
2024-01-15T10:55:41.678Z,3.30
2024-01-15T10:58:11.454Z,3.30
2024-01-15T11:00:41.147Z,3.30
2024-01-15T11:03:10.536Z,3.30
2024-01-15T11:05:41.605Z,3.40
2024-01-15T11:08:11.364Z,3.30
2024-01-15T11:10:48.289Z,3.40
2024-01-15T11:13:21.630Z,3.50
2024-01-15T11:16:04.655Z,3.40
2024-01-15T11:18:41.577Z,3.20
2024-01-15T11:21:27.432Z,3.20
2024-01-15T11:23:59.400Z,3.30
2024-01-15T11:26:34.331Z,3.50
2024-01-15T11:29:05.285Z,3.50
2024-01-15T11:32:03.041Z,3.60
2024-01-15T11:35:00.780Z,3.70
2024-01-15T11:38:00.693Z,3.70
2024-01-15T11:40:45.515Z,3.70
2024-01-15T11:43:18.052Z,3.50
2024-01-15T11:45:47.646Z,3.40
2024-01-15T11:48:18.515Z,3.20
2024-01-15T11:50:50.690Z,3.10
2024-01-15T11:53:35.307Z,3.00
2024-01-15T11:56:13.376Z,2.80
2024-01-15T11:58:43.047Z,2.50
2024-01-15T12:01:13.122Z,2.30
2024-01-15T12:03:43.036Z,2.20
2024-01-15T12:06:13.035Z,2.20
2024-01-15T12:08:42.894Z,2.20
2024-01-15T12:11:19.653Z,2.30
2024-01-15T12:13:48.175Z,2.30
2024-01-15T12:16:17.005Z,2.40
2024-01-15T12:18:46.118Z,2.40
2024-01-15T12:21:14.661Z,2.50
2024-01-15T12:23:44.392Z,2.40
2024-01-15T12:26:13.811Z,2.40
2024-01-15T12:28:42.664Z,2.50
2024-01-15T12:31:11.695Z,2.50
2024-01-15T12:33:41.788Z,2.40
2024-01-15T12:36:10.585Z,2.30
2024-01-15T12:38:38.927Z,2.30
2024-01-15T12:41:09.693Z,2.30
2024-01-15T12:43:38.070Z,2.20
2024-01-15T12:48:37.958Z,1.90
2024-01-15T12:51:08.835Z,1.90
2024-01-15T12:53:37.238Z,1.90
2024-01-15T12:56:06.263Z,1.90
2024-01-15T12:58:36.140Z,2.00
2024-01-15T13:01:04.966Z,2.00
2024-01-15T13:03:33.478Z,2.10
2024-01-15T13:06:02.062Z,2.20
2024-01-15T13:08:30.828Z,2.30
2024-01-15T13:10:59.804Z,2.30
2024-01-15T13:13:28.659Z,2.40
2024-01-15T13:15:58.528Z,2.40
2024-01-15T13:18:27.152Z,2.40
2024-01-15T13:20:55.792Z,2.30
2024-01-15T13:23:24.264Z,2.30
2024-01-15T13:25:52.672Z,2.30
2024-01-15T13:28:23.773Z,2.30
2024-01-15T13:30:52.624Z,2.30
2024-01-15T13:33:22.644Z,2.30
2024-01-15T13:35:51.689Z,2.30
2024-01-15T13:38:20.160Z,2.30
2024-01-15T13:40:48.621Z,2.30
2024-01-15T13:43:24.278Z,2.30
2024-01-15T13:45:53.497Z,2.30
2024-01-15T13:48:23.470Z,2.30
2024-01-15T13:50:52.453Z,2.20
2024-01-15T13:53:21.306Z,2.30
2024-01-15T13:55:49.877Z,2.30
2024-01-15T13:58:19.582Z,2.40
2024-01-15T14:00:48.702Z,2.40
2024-01-15T14:03:17.534Z,2.40
2024-01-15T14:05:47.369Z,2.30
2024-01-15T14:08:16.313Z,2.40
2024-01-15T14:10:46.185Z,2.40
2024-01-15T14:13:14.483Z,2.40
2024-01-15T14:15:42.946Z,2.40
2024-01-15T14:18:11.750Z,2.50
2024-01-15T14:20:40.177Z,2.40
2024-01-15T14:23:09.943Z,2.40
2024-01-15T14:25:38.707Z,2.50
2024-01-15T14:28:07.757Z,2.50
2024-01-15T14:30:36.198Z,2.50
2024-01-15T14:33:04.989Z,2.40
2024-01-15T14:35:33.458Z,2.40
2024-01-15T14:38:01.804Z,2.40
2024-01-15T14:40:31.859Z,2.40
2024-01-15T14:43:00.684Z,2.40
2024-01-15T14:45:29.799Z,2.30
2024-01-15T14:47:59.472Z,2.40
2024-01-15T14:50:27.927Z,2.40
2024-01-15T14:52:56.466Z,2.40
2024-01-15T14:55:26.443Z,2.30
2024-01-15T14:57:56.569Z,2.30
2024-01-15T15:00:25.768Z,2.20
2024-01-15T15:02:54.243Z,2.20
2024-01-15T15:05:22.582Z,2.20
2024-01-15T15:07:51.028Z,2.20
2024-01-15T15:10:19.545Z,2.10
2024-01-15T15:12:47.956Z,2.10
2024-01-15T15:15:21.640Z,2.00
2024-01-15T15:17:51.392Z,2.00
2024-01-15T15:20:21.263Z,1.90
2024-01-15T15:22:49.709Z,1.90
2024-01-15T15:25:18.083Z,1.80
2024-01-15T15:27:46.441Z,1.80
2024-01-15T15:30:15.814Z,1.80
2024-01-15T15:32:45.744Z,1.80
2024-01-15T15:35:14.574Z,1.80
2024-01-15T15:37:43.069Z,1.80
2024-01-15T15:40:14.227Z,1.70
2024-01-15T15:42:43.249Z,1.60
2024-01-15T15:45:12.356Z,1.60
2024-01-15T15:47:41.080Z,1.60
2024-01-15T15:50:11.509Z,1.60
2024-01-15T15:52:40.027Z,1.60
2024-01-15T15:55:10.078Z,1.60
2024-01-15T15:57:39.524Z,1.60
2024-01-15T16:00:09.846Z,1.60
2024-01-15T16:02:41.922Z,1.50
2024-01-15T16:05:12.483Z,1.50
2024-01-15T16:07:41.371Z,1.40
2024-01-15T16:10:12.111Z,1.50
2024-01-15T16:12:40.668Z,1.40
2024-01-15T16:15:21.665Z,1.40
2024-01-15T16:23:17.362Z,1.40
2024-01-15T16:23:32.124Z,1.40
2024-01-15T16:24:05.196Z,1.30
2024-01-15T16:26:18.312Z,1.30
2024-01-15T16:28:47.029Z,1.30
2024-01-15T16:31:15.574Z,1.30
2024-01-15T16:33:47.884Z,1.20
2024-01-15T16:36:22.825Z,1.20
2024-01-15T16:38:52.350Z,1.20
2024-01-15T16:41:20.953Z,1.30
2024-01-15T16:43:50.126Z,1.30
2024-01-15T16:46:18.866Z,1.30
2024-01-15T16:48:47.448Z,1.30
2024-01-15T16:51:16.004Z,1.30
2024-01-15T16:53:44.883Z,1.20
2024-01-15T16:56:13.349Z,1.20
2024-01-15T16:58:42.518Z,1.20
2024-01-15T17:01:11.241Z,1.20
2024-01-15T17:03:40.007Z,1.10
2024-01-15T17:06:09.022Z,1.20
2024-01-15T17:08:37.660Z,1.20
2024-01-15T17:11:08.094Z,1.10
2024-01-15T17:13:36.536Z,1.20
2024-01-15T17:16:05.927Z,1.10
2024-01-15T17:18:34.302Z,1.20
2024-01-15T17:21:02.891Z,1.20
2024-01-15T17:23:31.188Z,1.20
2024-01-15T17:26:00.081Z,1.20
2024-01-15T17:28:29.961Z,1.30
2024-01-15T17:30:59.791Z,1.30
2024-01-15T17:33:28.295Z,1.40
2024-01-15T17:36:00.282Z,1.40
2024-01-15T17:38:30.359Z,1.40
2024-01-15T17:40:59.222Z,1.50
2024-01-15T17:43:29.004Z,1.50
2024-01-15T17:46:01.790Z,1.50
2024-01-15T17:48:31.855Z,1.70
2024-01-15T17:51:00.625Z,1.50
2024-01-15T17:53:29.499Z,1.50
2024-01-15T17:55:58.114Z,1.50
2024-01-15T17:58:26.588Z,1.60
2024-01-15T18:00:56.876Z,1.70
2024-01-15T18:03:25.391Z,1.60
2024-01-15T18:05:54.086Z,1.60
2024-01-15T18:08:22.689Z,1.60
2024-01-15T18:10:51.148Z,1.60
2024-01-15T18:13:19.455Z,1.60
2024-01-15T18:15:49.342Z,1.60
2024-01-15T18:18:19.089Z,1.50
2024-01-15T18:20:47.705Z,1.50
2024-01-15T18:23:16.589Z,1.50
2024-01-15T18:25:45.281Z,1.40
2024-01-15T18:28:15.749Z,1.20
2024-01-15T18:30:44.185Z,1.10
2024-01-15T18:33:14.148Z,1.00
2024-01-15T18:35:44.300Z,1.00
2024-01-15T18:38:12.845Z,1.00
2024-01-15T18:40:43.875Z,0.90
2024-01-15T18:43:12.404Z,0.90
2024-01-15T18:45:40.837Z,0.80
2024-01-15T18:48:11.569Z,0.80
2024-01-15T18:50:40.786Z,0.80
2024-01-15T18:53:10.884Z,0.70
2024-01-15T18:55:39.299Z,0.70
2024-01-15T18:58:08.044Z,0.70
2024-01-15T19:00:36.543Z,0.60
2024-01-15T19:03:05.903Z,0.60
2024-01-15T19:05:34.356Z,0.70
2024-01-15T19:08:02.946Z,0.70
2024-01-15T19:10:32.875Z,0.70
2024-01-15T19:13:05.465Z,0.70
2024-01-15T19:15:34.728Z,0.70
2024-01-15T19:18:03.313Z,0.70
2024-01-15T19:20:33.229Z,0.70
2024-01-15T19:23:02.933Z,0.70
2024-01-15T19:25:33.134Z,0.60
2024-01-15T19:28:04.235Z,0.70
2024-01-15T19:30:32.930Z,0.60
2024-01-15T19:33:02.752Z,0.60
2024-01-15T19:35:31.336Z,0.50
2024-01-15T19:38:00.357Z,0.60
2024-01-15T19:40:30.845Z,0.60
2024-01-15T19:43:02.303Z,0.60
2024-01-15T19:45:31.013Z,0.60
2024-01-15T19:48:01.228Z,0.50
2024-01-15T19:50:29.852Z,0.40
2024-01-15T19:52:58.336Z,0.40
2024-01-15T19:55:27.594Z,0.40
2024-01-15T19:57:56.016Z,0.50
2024-01-15T20:00:25.964Z,0.50
2024-01-15T20:02:54.643Z,0.50
2024-01-15T20:05:23.022Z,0.50
2024-01-15T20:07:51.524Z,0.40
2024-01-15T20:10:19.905Z,0.40
2024-01-15T20:12:49.092Z,0.30
2024-01-15T20:15:19.393Z,0.40
2024-01-15T20:17:49.329Z,0.40
2024-01-15T20:20:17.965Z,0.40
2024-01-15T20:22:46.420Z,0.40
2024-01-15T20:25:15.111Z,0.40
2024-01-15T20:27:43.447Z,0.50
2024-01-15T20:30:13.447Z,0.50
2024-01-15T20:32:41.920Z,0.40
2024-01-15T20:35:11.966Z,0.40
2024-01-15T20:37:40.390Z,0.40
2024-01-15T20:40:10.364Z,0.40
2024-01-15T20:42:38.806Z,0.40
2024-01-15T20:45:09.131Z,0.40
2024-01-15T20:47:49.201Z,0.30
2024-01-15T20:50:19.458Z,0.30
2024-01-15T20:52:47.814Z,0.40
2024-01-15T20:55:17.176Z,0.40
2024-01-15T20:57:45.773Z,0.40
2024-01-15T21:00:15.818Z,0.40
2024-01-15T21:02:44.442Z,0.30
2024-01-15T21:05:14.162Z,0.30
2024-01-15T21:07:44.461Z,0.30
2024-01-15T21:10:12.897Z,0.40
2024-01-15T21:12:41.857Z,0.40
2024-01-15T21:15:11.338Z,0.50
2024-01-15T21:17:39.983Z,0.40
2024-01-15T21:20:09.993Z,0.40
2024-01-15T21:22:38.824Z,0.30
2024-01-15T21:25:11.103Z,0.30
2024-01-15T21:27:41.629Z,0.40
2024-01-15T21:30:12.974Z,0.40
2024-01-15T21:32:41.561Z,0.30
2024-01-15T21:35:11.762Z,0.20
2024-01-15T21:37:40.277Z,0.20
2024-01-15T21:40:11.881Z,0.30
2024-01-15T21:42:40.563Z,0.30
2024-01-15T21:45:10.887Z,0.40
2024-01-15T21:47:40.820Z,0.40
2024-01-15T21:50:10.937Z,0.30
2024-01-15T21:52:39.772Z,0.30
2024-01-15T21:55:10.894Z,0.30
2024-01-15T21:57:39.336Z,0.30
2024-01-15T22:00:09.555Z,0.10
2024-01-15T22:02:42.051Z,0.00
2024-01-15T22:05:11.982Z,0.00
2024-01-15T22:07:44.558Z,0.00
2024-01-15T22:10:15.116Z,0.00
2024-01-15T22:12:43.557Z,0.10
2024-01-15T22:15:14.042Z,0.10
2024-01-15T22:17:42.793Z,0.20
2024-01-15T22:20:12.060Z,0.20
2024-01-15T22:22:40.454Z,0.10
2024-01-15T22:25:53.341Z,0.10
2024-01-15T22:28:21.895Z,0.10
2024-01-15T22:30:50.473Z,0.10
2024-01-15T22:33:18.281Z,0.00
2024-01-15T22:35:46.913Z,0.10
2024-01-15T22:38:15.764Z,0.10
2024-01-15T22:40:44.219Z,0.10
2024-01-15T22:43:13.931Z,0.10
2024-01-15T22:45:42.519Z,0.20
2024-01-15T22:48:11.398Z,0.20
2024-01-15T22:50:40.372Z,0.20
2024-01-15T22:53:08.756Z,0.20
2024-01-15T22:55:37.176Z,0.30
2024-01-15T22:58:06.026Z,0.40
2024-01-15T23:00:35.880Z,0.30
2024-01-15T23:03:05.331Z,0.30
2024-01-15T23:05:34.134Z,0.40
2024-01-15T23:08:02.602Z,0.30
2024-01-15T23:10:31.568Z,0.30
2024-01-15T23:13:00.336Z,0.30
2024-01-15T23:15:29.826Z,0.30
2024-01-15T23:18:00.999Z,0.30
2024-01-15T23:20:30.168Z,0.30
2024-01-15T23:22:58.922Z,0.30
2024-01-15T23:25:27.367Z,0.30
2024-01-15T23:27:55.858Z,0.40
2024-01-15T23:30:24.537Z,0.40
2024-01-15T23:32:53.160Z,0.40
2024-01-15T23:35:23.465Z,0.40
2024-01-15T23:37:51.954Z,0.40
2024-01-15T23:40:20.307Z,0.40
2024-01-15T23:42:49.393Z,0.40
2024-01-15T23:45:18.154Z,0.50
2024-01-15T23:47:46.630Z,0.60
2024-01-15T23:50:15.101Z,0.50
2024-01-15T23:52:44.872Z,0.30
2024-01-15T23:55:13.932Z,0.30
2024-01-15T23:57:42.342Z,0.30
